Time;durP1;ratioP1;P1;durP2;ratioP2;P2;SDS_P1;SDS_P2;PMS_P1;PMS_P2;Temp;Humidity;BMP_temperature;BMP_pressure;BME280_temperature;BME280_humidity;BME280_pressure;Samples;Min_cycle;Max_cycle;Signal;HPM_P1;HPM_P2
2022/09/26 00:01:52;;;;;;;8.95;4.05;;;11.30;99.90;;;;;;5042246;28;20055;-46
2022/09/26 00:04:26;;;;;;;7.45;3.97;;;11.30;99.90;;;;;;5075558;28;20052;-49
2022/09/26 00:06:54;;;;;;;6.47;3.28;;;11.30;99.90;;;;;;5045971;28;20051;-47
2022/09/26 00:09:22;;;;;;;5.70;3.60;;;11.30;99.90;;;;;;5073561;28;20069;-47
2022/09/26 00:11:49;;;;;;;4.95;3.63;;;11.20;99.90;;;;;;5054907;28;20040;-50
2022/09/26 00:14:25;;;;;;;6.43;4.00;;;11.20;99.90;;;;;;5076223;28;20132;-52
2022/09/26 00:16:51;;;;;;;8.48;4.30;;;11.20;99.90;;;;;;5057831;28;20055;-52
2022/09/26 00:19:18;;;;;;;6.53;3.88;;;11.20;99.90;;;;;;5054312;28;20056;-47
2022/09/26 00:21:44;;;;;;;5.60;4.13;;;11.20;99.90;;;;;;5042603;28;20131;-46
2022/09/26 00:24:10;;;;;;;6.10;3.65;;;11.20;99.90;;;;;;5076491;28;20084;-52
2022/09/26 00:26:37;;;;;;;8.27;3.90;;;11.20;99.90;;;;;;5075079;28;20044;-53
2022/09/26 00:29:08;;;;;;;4.93;3.63;;;11.20;99.90;;;;;;5060432;28;20391;-46
2022/09/26 00:31:38;;;;;;;8.85;3.55;;;11.20;99.90;;;;;;5072548;28;20610;-51
2022/09/26 00:34:04;;;;;;;7.00;3.83;;;11.20;99.90;;;;;;5071599;28;20048;-47
2022/09/26 00:36:31;;;;;;;6.55;3.42;;;11.20;99.90;;;;;;5065395;28;20454;-49
2022/09/26 00:38:57;;;;;;;9.00;3.70;;;11.20;99.90;;;;;;5074168;28;20052;-49
2022/09/26 00:41:23;;;;;;;7.22;3.53;;;11.20;99.90;;;;;;5064693;28;20043;-49
2022/09/26 00:43:52;;;;;;;9.85;3.50;;;11.20;99.90;;;;;;5060368;28;20060;-47
2022/09/26 00:46:29;;;;;;;6.30;3.05;;;11.20;99.90;;;;;;5052808;28;20048;-46
2022/09/26 00:49:04;;;;;;;6.57;3.30;;;11.20;99.90;;;;;;5060514;28;20045;-53
2022/09/26 00:51:37;;;;;;;10.68;3.22;;;11.20;99.90;;;;;;5059567;28;20060;-53
2022/09/26 00:54:05;;;;;;;8.73;3.17;;;11.20;99.90;;;;;;5059146;28;20044;-52
2022/09/26 00:56:34;;;;;;;7.45;2.70;;;11.20;99.90;;;;;;5070124;28;20048;-48
2022/09/26 00:59:29;;;;;;;7.70;3.97;;;11.20;99.90;;;;;;5077833;28;20044;-47
2022/09/26 01:01:57;;;;;;;5.28;2.65;;;11.30;99.90;;;;;;5058527;28;20125;-49
2022/09/26 01:04:27;;;;;;;8.25;3.65;;;11.20;99.90;;;;;;5037887;28;20419;-52
2022/09/26 01:06:55;;;;;;;4.65;2.38;;;11.20;99.90;;;;;;5057583;28;20586;-52
2022/09/26 01:09:22;;;;;;;3.70;2.20;;;11.20;99.90;;;;;;5061331;28;20086;-50
2022/09/26 01:11:48;;;;;;;6.20;2.70;;;11.20;99.90;;;;;;5060039;28;20135;-52
2022/09/26 01:14:20;;;;;;;9.80;3.33;;;11.10;99.90;;;;;;5057988;28;20053;-50
2022/09/26 01:16:50;;;;;;;7.15;2.42;;;11.10;99.90;;;;;;5056821;28;20048;-45
2022/09/26 01:19:42;;;;;;;6.07;2.95;;;11.10;99.90;;;;;;5049206;28;20602;-49
2022/09/26 01:22:36;;;;;;;8.77;2.42;;;11.10;99.90;;;;;;5052209;28;20055;-50
2022/09/26 01:25:27;;;;;;;6.57;3.13;;;11.00;99.90;;;;;;5062419;28;20466;-51
2022/09/26 01:28:07;;;;;;;7.40;3.38;;;11.00;99.90;;;;;;5052058;28;20155;-48
2022/09/26 01:31:15;;;;;;;5.80;2.90;;;11.00;99.90;;;;;;5059612;28;20044;-50
2022/09/26 01:34:00;;;;;;;5.32;3.08;;;11.00;99.90;;;;;;5058793;28;20052;-50
2022/09/26 01:36:32;;;;;;;4.57;2.53;;;11.00;99.90;;;;;;5029492;28;20074;-53
2022/09/26 01:38:58;;;;;;;;;;;10.90;99.90;;;;;;5070721;28;20100;-50
2022/09/26 01:41:50;;;;;;;9.88;3.22;;;10.90;99.90;;;;;;5074856;28;19963;-46
2022/09/26 01:44:28;;;;;;;7.53;4.03;;;10.90;99.90;;;;;;5009795;28;20120;-47
2022/09/26 01:47:03;;;;;;;9.85;4.10;;;11.00;99.90;;;;;;5047584;28;20797;-49
2022/09/26 01:50:00;;;;;;;7.75;4.30;;;11.00;99.90;;;;;;5058737;28;20126;-47
2022/09/26 01:52:44;;;;;;;5.85;4.05;;;11.00;99.90;;;;;;5041447;28;20057;-53
2022/09/26 01:55:22;;;;;;;8.80;4.53;;;11.00;99.90;;;;;;5038795;28;20056;-49
2022/09/26 01:58:11;;;;;;;8.45;4.28;;;11.00;99.90;;;;;;5058092;28;20055;-48
2022/09/26 02:00:40;;;;;;;9.70;5.18;;;11.00;99.90;;;;;;5054751;28;20095;-48
2022/09/26 02:03:12;;;;;;;8.27;5.20;;;11.00;99.90;;;;;;5057279;28;20455;-47
2022/09/26 02:06:10;;;;;;;7.82;4.70;;;11.00;99.90;;;;;;5056564;28;20057;-47
2022/09/26 02:08:44;;;;;;;9.68;5.18;;;11.00;99.90;;;;;;5058771;28;20047;-46
2022/09/26 02:11:17;;;;;;;7.93;4.38;;;10.90;99.90;;;;;;5051316;28;20048;-49
2022/09/26 02:13:54;;;;;;;7.47;4.85;;;11.00;99.90;;;;;;5045936;28;20060;-49
2022/09/26 02:16:26;;;;;;;9.75;4.82;;;11.00;99.90;;;;;;5073804;28;20135;-53
2022/09/26 02:19:01;;;;;;;8.45;4.47;;;11.00;99.90;;;;;;5052546;28;20891;-48
2022/09/26 02:21:27;;;;;;;11.05;4.88;;;11.00;99.90;;;;;;5042299;28;20123;-52
2022/09/26 02:23:54;;;;;;;7.22;4.63;;;11.10;99.90;;;;;;5060901;28;20053;-49
2022/09/26 02:26:22;;;;;;;9.82;5.15;;;11.10;99.90;;;;;;5023981;28;20045;-51
2022/09/26 02:28:49;;;;;;;13.50;5.75;;;11.10;99.90;;;;;;5037290;28;20052;-52
2022/09/26 02:31:20;;;;;;;7.53;5.18;;;11.10;99.90;;;;;;5006199;28;20071;-51
2022/09/26 02:33:50;;;;;;;8.57;5.00;;;11.10;99.90;;;;;;5058090;28;20138;-52
2022/09/26 02:36:18;;;;;;;11.77;5.00;;;11.10;99.90;;;;;;5056231;28;20835;-51
2022/09/26 02:38:44;;;;;;;9.07;5.35;;;11.10;99.90;;;;;;5051354;28;20074;-53
2022/09/26 02:41:54;;;;;;;10.35;5.38;;;11.20;99.90;;;;;;5040395;28;20056;-51
2022/09/26 02:44:47;;;;;;;9.13;5.10;;;11.20;99.90;;;;;;5061554;28;20049;-48
2022/09/26 02:47:35;;;;;;;7.90;5.93;;;11.20;99.90;;;;;;5052326;28;20781;-44
2022/09/26 02:50:26;;;;;;;10.20;6.20;;;11.20;99.90;;;;;;5039903;28;20050;-47
2022/09/26 02:53:10;;;;;;;10.48;5.90;;;11.20;99.90;;;;;;5053573;28;20565;-49
2022/09/26 02:56:02;;;;;;;8.63;5.57;;;11.20;99.90;;;;;;5040137;28;20052;-51
2022/09/26 02:59:00;;;;;;;10.23;5.78;;;11.10;99.90;;;;;;5054016;28;20048;-53
2022/09/26 03:01:40;;;;;;;7.97;5.55;;;11.10;99.90;;;;;;5054860;28;20048;-45
2022/09/26 03:04:19;;;;;;;10.05;6.22;;;11.10;99.90;;;;;;5056080;28;20064;-52
2022/09/26 03:06:50;;;;;;;11.13;6.32;;;11.10;99.90;;;;;;5055590;28;20053;-50
2022/09/26 03:09:19;;;;;;;9.38;6.43;;;11.00;99.90;;;;;;5041692;28;20158;-51
2022/09/26 03:11:46;;;;;;;9.10;6.45;;;11.00;99.90;;;;;;5054135;28;20054;-53
2022/09/26 03:14:14;;;;;;;8.07;6.60;;;11.00;99.90;;;;;;5057747;28;20127;-48
2022/09/26 03:16:44;;;;;;;9.90;6.78;;;11.00;99.90;;;;;;5036327;28;20057;-47
2022/09/26 03:19:21;;;;;;;11.05;7.47;;;10.90;99.90;;;;;;5060510;28;20063;-44
2022/09/26 03:21:48;;;;;;;10.55;7.75;;;10.90;99.90;;;;;;5047425;28;20792;-51
2022/09/26 03:24:17;;;;;;;9.45;7.07;;;10.90;99.90;;;;;;5006856;28;20094;-53
2022/09/26 03:26:44;;;;;;;9.20;6.30;;;11.00;99.90;;;;;;5024914;28;20144;-53
2022/09/26 03:29:10;;;;;;;14.57;7.25;;;10.90;99.90;;;;;;5056986;28;20759;-52
2022/09/26 03:31:37;;;;;;;12.20;7.93;;;10.90;99.90;;;;;;5055863;28;20594;-50
2022/09/26 03:34:05;;;;;;;10.95;7.55;;;10.90;99.90;;;;;;5059368;28;20127;-53
2022/09/26 03:36:31;;;;;;;10.05;8.57;;;10.90;99.90;;;;;;5055951;28;20055;-53
2022/09/26 03:38:58;;;;;;;9.55;8.10;;;10.90;99.90;;;;;;5072275;28;20083;-52
2022/09/26 03:41:37;;;;;;;11.98;9.07;;;10.90;99.90;;;;;;5054466;28;20053;-49
2022/09/26 03:44:24;;;;;;;10.80;8.80;;;10.90;99.90;;;;;;5056192;28;20143;-52
2022/09/26 03:47:09;;;;;;;12.75;8.10;;;10.90;99.90;;;;;;5038141;28;20052;-51
2022/09/26 03:49:40;;;;;;;;;;;10.90;99.90;;;;;;5057261;28;20610;-51
2022/09/26 03:52:10;;;;;;;9.60;7.90;;;10.90;99.90;;;;;;5040163;28;20686;-46
2022/09/26 03:54:36;;;;;;;10.07;8.02;;;10.90;99.90;;;;;;5072871;28;20092;-46
2022/09/26 03:57:02;;;;;;;12.57;8.63;;;10.90;99.90;;;;;;5057942;28;20544;-46
2022/09/26 03:59:28;;;;;;;13.98;9.13;;;10.80;99.90;;;;;;5041089;28;20446;-45
2022/09/26 04:01:55;;;;;;;12.43;7.97;;;10.90;99.90;;;;;;5034068;28;20697;-47
2022/09/26 04:04:21;;;;;;;12.77;8.77;;;10.80;99.90;;;;;;5040039;28;20052;-46
2022/09/26 04:06:50;;;;;;;13.38;9.25;;;10.80;99.90;;;;;;5056064;28;20056;-45
2022/09/26 04:09:16;;;;;;;14.00;9.82;;;10.80;99.90;;;;;;5025345;28;20040;-46
2022/09/26 04:11:45;;;;;;;16.35;10.43;;;10.80;99.90;;;;;;5058913;28;20049;-45
2022/09/26 04:14:12;;;;;;;14.35;10.68;;;10.80;99.90;;;;;;5058970;28;20052;-53
2022/09/26 04:16:38;;;;;;;13.55;10.13;;;10.80;99.90;;;;;;5062075;28;20052;-49
2022/09/26 04:19:25;;;;;;;13.65;10.93;;;10.80;99.90;;;;;;5061383;28;20859;-52
2022/09/26 04:21:51;;;;;;;16.42;11.25;;;10.80;99.90;;;;;;5054195;28;20044;-52
2022/09/26 04:24:20;;;;;;;12.43;10.75;;;10.80;99.90;;;;;;5060443;28;20048;-52
2022/09/26 04:26:46;;;;;;;12.10;10.70;;;10.80;99.90;;;;;;5061025;28;20052;-53
2022/09/26 04:29:13;;;;;;;15.60;11.90;;;10.70;99.90;;;;;;5058329;28;20048;-51
2022/09/26 04:32:01;;;;;;;13.27;11.98;;;10.80;99.90;;;;;;5040085;28;20048;-52
2022/09/26 04:34:40;;;;;;;16.05;11.63;;;10.70;99.90;;;;;;5055391;28;20117;-51
2022/09/26 04:37:08;;;;;;;13.63;10.90;;;10.70;99.90;;;;;;5056103;28;20060;-51
2022/09/26 04:39:35;;;;;;;12.82;11.32;;;10.70;99.90;;;;;;5009339;28;20800;-46
2022/09/26 04:42:01;;;;;;;15.95;11.20;;;10.70;99.90;;;;;;5077056;28;20099;-52
2022/09/26 04:44:29;;;;;;;15.60;12.57;;;10.70;99.90;;;;;;5059205;28;20060;-52
2022/09/26 04:46:55;;;;;;;12.60;11.20;;;10.70;99.90;;;;;;5058876;28;20710;-53
2022/09/26 04:49:30;;;;;;;14.35;12.02;;;10.70;99.90;;;;;;5029852;28;20601;-54
2022/09/26 04:51:56;;;;;;;17.83;12.80;;;10.70;99.90;;;;;;5059982;28;20045;-53
2022/09/26 04:54:23;;;;;;;17.60;12.23;;;10.70;99.90;;;;;;5059750;28;20711;-53
2022/09/26 04:56:49;;;;;;;15.02;12.30;;;10.70;99.90;;;;;;5020399;28;20063;-53
2022/09/26 04:59:16;;;;;;;20.90;13.15;;;10.70;99.90;;;;;;5057596;28;20144;-56
2022/09/26 05:01:57;;;;;;;15.10;13.50;;;10.70;99.90;;;;;;5059141;28;20044;-49
2022/09/26 05:04:47;;;;;;;14.15;12.35;;;10.70;99.90;;;;;;5081190;28;20052;-46
2022/09/26 05:07:15;;;;;;;19.40;14.40;;;10.70;99.90;;;;;;5047081;28;20094;-44
2022/09/26 05:09:41;;;;;;;15.32;12.82;;;10.70;99.90;;;;;;5073013;28;20044;-58
2022/09/26 05:12:13;;;;;;;14.82;13.32;;;10.70;99.90;;;;;;5076747;28;20044;-54
2022/09/26 05:14:43;;;;;;;14.93;13.43;;;10.70;99.90;;;;;;5045434;28;20647;-54
2022/09/26 05:17:10;;;;;;;17.38;13.38;;;10.70;99.90;;;;;;5047877;28;20048;-49
2022/09/26 05:19:37;;;;;;;15.60;13.32;;;10.70;99.90;;;;;;5064896;28;20051;-46
2022/09/26 05:22:21;;;;;;;15.30;13.48;;;10.70;99.90;;;;;;5032184;28;20043;-45
2022/09/26 05:27:40;;;;;;;19.13;13.40;;;10.70;99.90;;;;;;5037424;28;20137;-49
2022/09/26 05:30:07;;;;;;;14.25;12.23;;;10.70;99.90;;;;;;5045282;28;20044;-46
2022/09/26 05:32:33;;;;;;;16.98;13.30;;;10.70;99.90;;;;;;5064396;28;20048;-53
2022/09/26 05:34:59;;;;;;;15.02;12.65;;;10.70;99.90;;;;;;5044493;28;20059;-54
2022/09/26 05:37:28;;;;;;;17.98;13.15;;;10.70;99.90;;;;;;5044392;28;20091;-53
2022/09/26 05:42:44;;;;;;;14.68;11.88;;;10.60;99.90;;;;;;5049166;28;20097;-45
2022/09/26 05:45:12;;;;;;;15.35;12.90;;;10.60;99.90;;;;;;5039919;28;20059;-48
2022/09/26 05:47:38;;;;;;;17.38;12.15;;;10.70;99.90;;;;;;5059835;28;20043;-44
2022/09/26 05:50:08;;;;;;;16.88;12.35;;;10.60;99.90;;;;;;5055067;28;20045;-48
2022/09/26 05:52:37;;;;;;;15.18;13.55;;;10.60;99.90;;;;;;5059753;28;20048;-47
2022/09/26 05:55:05;;;;;;;16.73;13.65;;;10.60;99.90;;;;;;5075777;28;20062;-47
2022/09/26 05:57:54;;;;;;;14.32;12.20;;;10.50;99.90;;;;;;5066915;28;20525;-47
2022/09/26 06:00:26;;;;;;;16.23;12.02;;;10.60;99.90;;;;;;5040958;28;20167;-48
2022/09/26 06:02:57;;;;;;;17.50;12.75;;;10.60;99.90;;;;;;5081625;28;20063;-47
2022/09/26 06:05:46;;;;;;;13.50;10.90;;;10.50;99.90;;;;;;5065908;28;20044;-50
2022/09/26 06:08:16;;;;;;;13.40;11.48;;;10.50;99.90;;;;;;5068465;28;20047;-46
2022/09/26 06:10:57;;;;;;;14.80;13.10;;;10.50;99.90;;;;;;5044677;28;20490;-45
2022/09/26 06:13:24;;;;;;;11.95;10.50;;;10.50;99.90;;;;;;5063415;28;20044;-46
2022/09/26 06:15:51;;;;;;;12.27;10.98;;;10.50;99.90;;;;;;5026954;28;20516;-46
2022/09/26 06:18:17;;;;;;;11.88;10.13;;;10.50;99.90;;;;;;5062334;28;20130;-47
2022/09/26 06:20:43;;;;;;;14.27;10.35;;;10.50;99.90;;;;;;5064036;28;20048;-47
2022/09/26 06:23:11;;;;;;;11.25;9.82;;;10.60;99.90;;;;;;5041671;28;20044;-45
2022/09/26 06:25:38;;;;;;;10.85;9.07;;;10.60;99.90;;;;;;5064531;28;20040;-48
2022/09/26 06:28:05;;;;;;;13.40;11.07;;;10.60;99.90;;;;;;5041481;28;20786;-46
2022/09/26 06:30:32;;;;;;;11.90;9.73;;;10.60;99.90;;;;;;5043947;28;20501;-51
2022/09/26 06:33:10;;;;;;;12.30;9.43;;;10.60;99.90;;;;;;5058959;28;20088;-52
2022/09/26 06:35:39;;;;;;;11.93;9.10;;;10.60;99.90;;;;;;5060935;28;20112;-52
2022/09/26 06:38:10;;;;;;;12.15;9.65;;;10.60;99.90;;;;;;5013279;28;20055;-50
2022/09/26 06:40:36;;;;;;;11.60;8.75;;;10.60;99.90;;;;;;5049249;28;20047;-49
2022/09/26 06:43:03;;;;;;;12.32;9.35;;;10.60;99.90;;;;;;5046865;28;20052;-53
2022/09/26 06:46:10;;;;;;;10.55;8.57;;;10.60;99.90;;;;;;4985800;28;20093;-52
2022/09/26 06:48:45;;;;;;;12.73;7.95;;;10.70;99.90;;;;;;4958831;28;20478;-46
2022/09/26 06:51:20;;;;;;;14.55;7.40;;;10.60;99.90;;;;;;5023231;28;20901;-47
2022/09/26 06:53:46;;;;;;;11.50;7.80;;;10.60;99.90;;;;;;5030114;28;20044;-53
2022/09/26 06:56:17;;;;;;;10.35;7.68;;;10.70;99.90;;;;;;5061447;28;20060;-47
2022/09/26 06:58:44;;;;;;;9.02;7.85;;;10.60;99.90;;;;;;5078295;28;20414;-47
2022/09/26 07:01:11;;;;;;;8.18;7.05;;;10.70;99.90;;;;;;5041409;28;20079;-48
2022/09/26 07:03:53;;;;;;;8.43;7.32;;;10.60;99.90;;;;;;5046092;28;20110;-44
2022/09/26 07:06:43;;;;;;;8.48;6.55;;;10.60;99.90;;;;;;5075938;28;20133;-47
2022/09/26 07:09:09;;;;;;;11.00;7.10;;;10.60;99.90;;;;;;5058556;28;20051;-46
2022/09/26 07:11:46;;;;;;;7.93;5.93;;;10.60;99.90;;;;;;5039782;28;20803;-48
2022/09/26 07:14:16;;;;;;;11.60;6.40;;;10.60;99.90;;;;;;5076884;28;20137;-44
2022/09/26 07:16:50;;;;;;;9.40;5.47;;;10.60;99.90;;;;;;5056750;28;20051;-52
2022/09/26 07:19:35;;;;;;;8.85;6.45;;;10.60;99.90;;;;;;5079679;28;20052;-49
2022/09/26 07:22:06;;;;;;;7.85;6.18;;;10.60;99.90;;;;;;5060988;28;20140;-44
2022/09/26 07:24:53;;;;;;;9.93;7.07;;;10.60;99.90;;;;;;5072717;28;20127;-45
2022/09/26 07:27:20;;;;;;;11.70;7.30;;;10.50;99.90;;;;;;5042073;28;20302;-44
2022/09/26 07:29:47;;;;;;;9.32;6.65;;;10.50;99.90;;;;;;5067418;28;20063;-45
2022/09/26 07:32:16;;;;;;;11.02;6.85;;;10.50;99.90;;;;;;5042654;28;20040;-47
2022/09/26 07:34:58;;;;;;;10.85;6.80;;;10.50;99.90;;;;;;5030469;28;20051;-51
2022/09/26 07:37:28;;;;;;;10.00;6.43;;;10.50;99.90;;;;;;5060722;28;20120;-49
2022/09/26 07:39:55;;;;;;;9.60;6.80;;;10.50;99.90;;;;;;5048816;28;20040;-48
2022/09/26 07:42:21;;;;;;;11.65;6.78;;;10.50;99.90;;;;;;5053089;28;20120;-52
2022/09/26 07:44:47;;;;;;;10.15;7.95;;;10.50;99.90;;;;;;5040768;28;20057;-52
2022/09/26 07:50:15;;;;;;;9.90;6.43;;;10.50;99.90;;;;;;5061826;28;20989;-45
2022/09/26 07:53:00;;;;;;;10.20;7.25;;;10.50;99.90;;;;;;5081067;28;20469;-45
2022/09/26 07:55:27;;;;;;;10.73;6.18;;;10.50;99.90;;;;;;5081929;28;20048;-46
2022/09/26 07:58:16;;;;;;;11.90;6.40;;;10.50;99.90;;;;;;5028551;28;20113;-43
2022/09/26 08:01:15;;;;;;;8.13;5.95;;;10.60;99.90;;;;;;5059978;28;20552;-44
2022/09/26 08:04:00;;;;;;;;;;;10.60;99.90;;;;;;5064737;28;20056;-45
2022/09/26 08:06:33;;;;;;;13.00;6.68;;;10.60;99.90;;;;;;5065437;28;19926;-46
2022/09/26 08:09:00;;;;;;;10.77;6.80;;;10.70;99.90;;;;;;5042248;28;20059;-44
2022/09/26 08:11:45;;;;;;;8.57;7.20;;;10.70;99.90;;;;;;5061378;28;20123;-43
2022/09/26 08:14:30;;;;;;;12.32;7.32;;;10.80;99.90;;;;;;5069662;28;20113;-45
2022/09/26 08:17:03;;;;;;;12.68;7.03;;;10.80;99.90;;;;;;5048781;28;20101;-48
2022/09/26 08:19:29;;;;;;;12.02;7.45;;;10.90;99.90;;;;;;5032305;28;20040;-48
2022/09/26 08:21:57;;;;;;;8.93;6.28;;;11.00;99.90;;;;;;5064182;28;20052;-45
2022/09/26 08:24:23;;;;;;;11.68;6.47;;;10.90;99.90;;;;;;5064489;28;20080;-46
2022/09/26 08:26:55;;;;;;;8.15;6.10;;;11.00;99.90;;;;;;5061926;28;20047;-45
2022/09/26 08:29:26;;;;;;;10.55;6.38;;;11.00;99.90;;;;;;5028084;28;20125;-46
2022/09/26 08:31:54;;;;;;;8.20;6.07;;;11.10;99.90;;;;;;5046001;28;20098;-45
2022/09/26 08:34:20;;;;;;;10.18;7.47;;;11.10;99.90;;;;;;5077671;28;20094;-46
2022/09/26 08:36:56;;;;;;;9.13;6.07;;;11.10;99.90;;;;;;5041682;28;20105;-47
2022/09/26 08:39:38;;;;;;;9.45;6.32;;;11.20;99.90;;;;;;5054943;28;20044;-43
2022/09/26 08:42:55;;;;;;;10.43;6.45;;;11.20;99.90;;;;;;4983431;28;20048;-47
2022/09/26 08:48:50;;;;;;;11.32;6.10;;;11.20;99.90;;;;;;5090812;28;20055;-51
2022/09/26 08:51:31;;;;;;;7.80;5.35;;;11.30;99.90;;;;;;5040767;28;20514;-50
2022/09/26 08:54:16;;;;;;;8.75;5.78;;;11.30;99.90;;;;;;5059365;28;20068;-49
2022/09/26 08:56:49;;;;;;;11.07;6.65;;;11.30;99.90;;;;;;5056562;28;20048;-51
2022/09/26 08:59:28;;;;;;;6.55;5.18;;;11.40;99.90;;;;;;5065763;28;20040;-48
2022/09/26 09:02:00;;;;;;;11.25;5.32;;;11.50;99.90;;;;;;5047721;28;20119;-48
2022/09/26 09:04:50;;;;;;;11.52;5.68;;;11.50;99.90;;;;;;5078539;28;20056;-47
2022/09/26 09:07:22;;;;;;;10.25;5.50;;;11.60;99.90;;;;;;5047314;28;20494;-51
2022/09/26 09:09:53;;;;;;;9.20;5.95;;;11.60;99.90;;;;;;5048392;28;20044;-44
2022/09/26 09:13:09;;;;;;;9.30;5.40;;;11.70;99.90;;;;;;5076858;28;20075;-45
2022/09/26 09:16:24;;;;;;;11.60;7.22;;;11.70;99.90;;;;;;5035414;28;20589;-49
2022/09/26 09:19:32;;;;;;;8.88;4.88;;;11.80;99.90;;;;;;5062010;28;20054;-50
2022/09/26 09:22:40;;;;;;;8.57;4.72;;;12.00;99.90;;;;;;5043812;28;20902;-52
2022/09/26 09:25:31;;;;;;;10.68;5.20;;;12.10;99.90;;;;;;5065876;28;20048;-51
2022/09/26 09:28:06;;;;;;;7.38;5.55;;;12.00;99.90;;;;;;5059915;28;20079;-49
2022/09/26 09:30:40;;;;;;;9.73;5.20;;;12.10;99.90;;;;;;5063644;28;20505;-47
2022/09/26 09:33:20;;;;;;;8.23;5.30;;;12.00;99.90;;;;;;5044518;28;20051;-51
2022/09/26 09:36:13;;;;;;;9.38;5.53;;;11.90;99.90;;;;;;5046122;28;20486;-52
2022/09/26 09:39:04;;;;;;;10.85;6.15;;;12.00;99.90;;;;;;5060489;28;20052;-49
2022/09/26 09:41:57;;;;;;;10.95;6.50;;;12.00;99.90;;;;;;5031041;28;20080;-47
2022/09/26 09:44:23;;;;;;;8.65;5.47;;;12.00;99.90;;;;;;5069593;28;20052;-49
2022/09/26 09:46:50;;;;;;;9.77;6.20;;;12.00;99.90;;;;;;5099445;28;20506;-45
2022/09/26 09:49:20;;;;;;;10.40;5.72;;;12.00;99.90;;;;;;5048081;28;20051;-48
2022/09/26 09:52:21;;;;;;;11.60;7.65;;;11.90;99.90;;;;;;5043860;28;20334;-45
2022/09/26 09:55:22;;;;;;;12.80;6.53;;;11.90;99.90;;;;;;5001786;28;20056;-48
2022/09/26 09:57:49;;;;;;;10.88;6.72;;;11.90;99.90;;;;;;5047984;28;20538;-44
2022/09/26 10:00:24;;;;;;;11.77;7.55;;;11.80;99.90;;;;;;5061960;28;20077;-45
2022/09/26 10:03:18;;;;;;;10.57;6.93;;;11.90;99.90;;;;;;5071019;28;20052;-44
2022/09/26 10:05:52;;;;;;;10.40;6.70;;;11.80;99.90;;;;;;5063662;28;20136;-45
2022/09/26 10:08:30;;;;;;;11.23;6.78;;;11.80;99.90;;;;;;5031884;28;20495;-44
2022/09/26 10:11:21;;;;;;;12.65;6.22;;;11.90;99.90;;;;;;5079617;28;20120;-46
2022/09/26 10:14:05;;;;;;;8.38;6.30;;;11.90;99.90;;;;;;5077012;28;20044;-46
2022/09/26 10:17:09;;;;;;;14.63;9.70;;;11.90;99.90;;;;;;4975719;28;20046;-49
2022/09/26 10:19:54;;;;;;;9.82;5.82;;;12.00;99.90;;;;;;5060148;28;20075;-44
2022/09/26 10:22:36;;;;;;;11.10;6.65;;;12.00;99.90;;;;;;5060968;28;20047;-46
2022/09/26 10:25:17;;;;;;;11.48;5.57;;;12.10;99.90;;;;;;5042549;28;20048;-45
2022/09/26 10:27:50;;;;;;;8.60;5.93;;;12.10;99.90;;;;;;5037998;28;20040;-46
2022/09/26 10:30:17;;;;;;;10.20;6.57;;;12.20;99.90;;;;;;5061230;28;20484;-48
2022/09/26 10:32:50;;;;;;;8.65;5.40;;;12.20;99.90;;;;;;5027696;28;20162;-46
2022/09/26 10:35:44;;;;;;;11.80;5.22;;;12.20;99.90;;;;;;5074983;28;20052;-49
2022/09/26 10:38:26;;;;;;;9.77;6.45;;;12.20;99.90;;;;;;5056166;28;20116;-48
2022/09/26 10:41:22;;;;;;;9.80;7.20;;;12.20;99.90;;;;;;5027295;28;20044;-44
2022/09/26 10:43:54;;;;;;;11.10;6.95;;;12.20;99.90;;;;;;5043592;28;20513;-48
2022/09/26 10:46:49;;;;;;;6.95;5.25;;;12.20;99.90;;;;;;5055326;28;20059;-47
2022/09/26 10:49:47;;;;;;;12.63;7.15;;;12.20;99.90;;;;;;5055910;28;20041;-44
2022/09/26 10:52:48;;;;;;;9.25;5.50;;;12.10;99.90;;;;;;5073288;28;20044;-46
2022/09/26 10:55:24;;;;;;;8.25;6.35;;;12.00;99.90;;;;;;5062600;28;20789;-46
2022/09/26 10:57:54;;;;;;;12.32;8.30;;;12.00;99.90;;;;;;5065080;28;20482;-47
2022/09/26 11:00:51;;;;;;;9.85;7.35;;;12.00;99.90;;;;;;5061996;28;20541;-44
2022/09/26 11:03:31;;;;;;;22.67;18.45;;;12.00;99.90;;;;;;5039124;28;20060;-45
2022/09/26 11:06:38;;;;;;;10.88;7.82;;;11.90;99.90;;;;;;5034560;28;20087;-46
2022/09/26 11:09:19;;;;;;;10.45;7.10;;;11.90;99.90;;;;;;5069581;28;20147;-45
2022/09/26 11:12:28;;;;;;;10.35;7.38;;;11.90;99.90;;;;;;5055843;28;20105;-45
2022/09/26 11:15:03;;;;;;;12.43;8.65;;;11.90;99.90;;;;;;5028422;28;20106;-46
2022/09/26 11:17:45;;;;;;;10.02;6.75;;;11.90;99.90;;;;;;5046220;28;20983;-49
2022/09/26 11:20:16;;;;;;;;;;;11.80;99.90;;;;;;5059585;28;20059;-44
2022/09/26 11:22:50;;;;;;;13.23;6.68;;;11.80;99.90;;;;;;5062879;28;19983;-45
2022/09/26 11:25:26;;;;;;;9.38;7.45;;;11.80;99.90;;;;;;5058704;28;20123;-45
2022/09/26 11:28:22;;;;;;;10.07;7.13;;;11.80;99.90;;;;;;5076818;28;20056;-46
2022/09/26 11:31:39;;;;;;;11.93;9.88;;;11.80;99.90;;;;;;5042911;28;20051;-43
2022/09/26 11:34:39;;;;;;;11.30;8.65;;;11.80;99.90;;;;;;5020094;28;20044;-48
2022/09/26 11:37:20;;;;;;;11.05;8.50;;;11.80;99.90;;;;;;5053408;28;20199;-44
2022/09/26 11:40:02;;;;;;;15.20;11.30;;;11.80;99.90;;;;;;5057402;28;20077;-44
2022/09/26 11:42:56;;;;;;;11.18;8.07;;;11.90;99.90;;;;;;5027238;28;20128;-44
2022/09/26 11:45:39;;;;;;;10.18;8.15;;;11.80;99.90;;;;;;5038763;28;20045;-44
2022/09/26 11:48:43;;;;;;;13.20;8.43;;;11.90;99.90;;;;;;5067119;28;20102;-44
2022/09/26 11:51:48;;;;;;;11.48;8.80;;;11.90;99.90;;;;;;5077096;28;20510;-44
2022/09/26 11:54:23;;;;;;;10.93;7.80;;;11.90;99.90;;;;;;5041217;28;20151;-47
2022/09/26 11:57:21;;;;;;;9.43;8.43;;;11.90;99.90;;;;;;5066973;28;20059;-44
2022/09/26 11:59:57;;;;;;;12.02;7.95;;;12.00;99.90;;;;;;5060617;28;20055;-45
2022/09/26 12:02:32;;;;;;;10.30;7.20;;;11.90;99.90;;;;;;5054348;28;20137;-42
2022/09/26 12:05:34;;;;;;;11.88;7.82;;;11.90;99.90;;;;;;5077100;28;20047;-46
2022/09/26 12:08:03;;;;;;;9.67;7.60;;;12.00;99.90;;;;;;5025678;28;20422;-47
2022/09/26 12:10:38;;;;;;;9.60;8.00;;;12.00;99.90;;;;;;5061905;28;20301;-45
2022/09/26 12:13:07;;;;;;;9.73;7.47;;;12.00;99.90;;;;;;5081805;28;20080;-46
2022/09/26 12:15:40;;;;;;;9.82;7.20;;;12.00;99.90;;;;;;5072615;28;20043;-48
2022/09/26 12:18:31;;;;;;;7.57;6.85;;;12.00;99.90;;;;;;5061921;28;20486;-44
2022/09/26 12:21:21;;;;;;;11.75;7.03;;;12.00;99.90;;;;;;5076664;28;20059;-44
2022/09/26 12:23:57;;;;;;;8.88;7.05;;;12.00;99.90;;;;;;5057316;28;20083;-50
2022/09/26 12:26:47;;;;;;;7.18;6.47;;;11.90;99.90;;;;;;5035217;28;20081;-48
2022/09/26 12:29:27;;;;;;;8.70;7.13;;;11.90;99.90;;;;;;5057819;28;20039;-47
2022/09/26 12:31:53;;;;;;;7.00;5.80;;;11.90;99.90;;;;;;5073102;28;20048;-50
2022/09/26 12:34:38;;;;;;;14.65;11.98;;;12.00;99.90;;;;;;5058838;28;20048;-48
2022/09/26 12:37:30;;;;;;;10.57;8.80;;;12.00;99.90;;;;;;5078958;28;20052;-46
2022/09/26 12:40:30;;;;;;;7.88;5.93;;;12.00;99.90;;;;;;5052408;28;20511;-44
2022/09/26 12:43:18;;;;;;;8.27;5.65;;;12.00;99.90;;;;;;5059517;28;20055;-49
2022/09/26 12:46:12;;;;;;;6.65;5.85;;;12.00;99.90;;;;;;5053838;28;20253;-47
2022/09/26 12:48:38;;;;;;;10.27;6.18;;;12.00;99.90;;;;;;5070404;28;20037;-45
2022/09/26 12:51:27;;;;;;;5.78;5.00;;;12.10;99.90;;;;;;5078309;28;20048;-50
2022/09/26 12:54:24;;;;;;;7.25;4.97;;;12.10;99.90;;;;;;5078864;28;20052;-44
2022/09/26 12:57:20;;;;;;;6.28;5.10;;;12.10;99.90;;;;;;5079977;28;20762;-48
2022/09/26 13:00:04;;;;;;;5.57;5.07;;;12.10;99.90;;;;;;5036021;28;20070;-46
2022/09/26 13:02:41;;;;;;;8.25;4.60;;;12.20;99.90;;;;;;5057491;28;20048;-45
2022/09/26 13:05:44;;;;;;;6.45;5.03;;;12.10;99.90;;;;;;5059944;28;20769;-44
2022/09/26 13:08:30;;;;;;;6.45;5.43;;;12.20;99.90;;;;;;5082497;28;20052;-42
2022/09/26 13:11:10;;;;;;;5.57;4.93;;;12.20;99.90;;;;;;5014412;28;20040;-44
2022/09/26 13:14:19;;;;;;;7.25;5.25;;;12.20;99.90;;;;;;5062923;28;20048;-46
2022/09/26 13:17:09;;;;;;;6.25;4.53;;;12.30;99.90;;;;;;5054134;28;20055;-42
2022/09/26 13:19:38;;;;;;;5.80;5.00;;;12.30;99.90;;;;;;5052936;28;20106;-45
2022/09/26 13:22:20;;;;;;;6.47;5.03;;;12.30;99.90;;;;;;5076470;28;20502;-44
2022/09/26 13:25:00;;;;;;;7.75;5.70;;;12.20;99.90;;;;;;5079215;28;20051;-45
2022/09/26 13:28:03;;;;;;;4.55;4.05;;;12.20;99.90;;;;;;5081045;28;20044;-47
2022/09/26 13:30:34;;;;;;;5.57;4.70;;;12.20;99.90;;;;;;5038999;28;20913;-47
2022/09/26 13:33:24;;;;;;;7.10;5.15;;;12.30;99.90;;;;;;5060143;28;20060;-46
2022/09/26 13:35:55;;;;;;;6.18;5.25;;;12.20;99.90;;;;;;5046673;28;20822;-49
2022/09/26 13:38:56;;;;;;;4.97;4.47;;;12.20;99.90;;;;;;5070686;28;20048;-43
2022/09/26 13:41:56;;;;;;;7.75;5.82;;;12.20;99.90;;;;;;5061196;28;20402;-43
2022/09/26 13:44:44;;;;;;;5.03;4.40;;;12.30;99.90;;;;;;5063383;28;20128;-47
2022/09/26 13:47:30;;;;;;;5.65;4.18;;;12.40;99.90;;;;;;5062629;28;20059;-48